Pagina principale
METAR-TAF:

METAR-TAF

Aeroporti :

Searcy Municipal Airport

Searcy, Arkansas, Stati Uniti

latitudine: 35-12-43N, longitudine: 091-44-14W, altezza: 81 m

Osservazione

Il bollettino è stato emesso 17 minuti fa, alle 12:56 UTC
Vento calmo
Temperature 3°C
Umidità 100%
Pressione 1023 hPa
Visibilità: 16.1 km
Cielo sereno

METAR: KSRC 181256Z AUTO 00000KT 10SM CLR 03/03 A3021 RMK AO2 SLP242 T00280028

Ora: 07:13 (13:13 UTC)


TAF: mancante

Osservazioni e previsioni meteorologiche di più di 4000 aeroporti (messaggi METAR e TAF).

Le stazioni disponibili sono rappresentate dai dischi gialli e rossi sulla carta.

Puntare il mouse per vedere il nome della stazione.

Clicca sopra per visualizzare le osservazioni e previsioni meteorologiche.

Per cambiare la mappa : fare clic sui pulsanti verdi con una croce nera per ingrandire, il pulsante verde con un trattino per diminuire, o sulla freccia verde per le mappe adiacenti.


METAR-TAF: